sensor_id;sensor_type;location;lat;lon;timestamp;P1;durP1;ratioP1;P2;durP2;ratioP2
39924;SDS011;25592;49.986;11.618;2023-04-15T00:01:13;5.68;;;3.47;;
39924;SDS011;25592;49.986;11.618;2023-04-15T00:04:03;5.05;;;3.78;;
39924;SDS011;25592;49.986;11.618;2023-04-15T00:06:49;5.22;;;3.17;;
39924;SDS011;25592;49.986;11.618;2023-04-15T00:09:36;6.68;;;3.22;;
39924;SDS011;25592;49.986;11.618;2023-04-15T00:12:25;5.13;;;3.28;;
39924;SDS011;25592;49.986;11.618;2023-04-15T00:15:11;5.38;;;3.70;;
39924;SDS011;25592;49.986;11.618;2023-04-15T00:17:57;4.55;;;3.20;;
39924;SDS011;25592;49.986;11.618;2023-04-15T00:20:42;5.25;;;3.40;;
39924;SDS011;25592;49.986;11.618;2023-04-15T00:23:27;7.38;;;3.83;;
39924;SDS011;25592;49.986;11.618;2023-04-15T00:26:13;5.03;;;3.00;;
39924;SDS011;25592;49.986;11.618;2023-04-15T00:28:58;5.55;;;2.78;;
39924;SDS011;25592;49.986;11.618;2023-04-15T00:31:43;5.22;;;3.10;;
39924;SDS011;25592;49.986;11.618;2023-04-15T00:34:29;5.45;;;3.22;;
39924;SDS011;25592;49.986;11.618;2023-04-15T00:37:14;6.57;;;3.60;;
39924;SDS011;25592;49.986;11.618;2023-04-15T00:40:00;4.90;;;3.17;;
39924;SDS011;25592;49.986;11.618;2023-04-15T00:42:45;5.80;;;3.53;;
39924;SDS011;25592;49.986;11.618;2023-04-15T00:45:30;4.90;;;3.47;;
39924;SDS011;25592;49.986;11.618;2023-04-15T00:48:17;9.45;;;5.40;;
39924;SDS011;25592;49.986;11.618;2023-04-15T00:51:02;5.80;;;3.75;;
39924;SDS011;25592;49.986;11.618;2023-04-15T00:53:48;7.47;;;4.10;;
39924;SDS011;25592;49.986;11.618;2023-04-15T00:56:34;6.28;;;4.13;;
39924;SDS011;25592;49.986;11.618;2023-04-15T00:59:21;10.55;;;3.20;;
39924;SDS011;25592;49.986;11.618;2023-04-15T01:02:07;7.20;;;3.28;;
39924;SDS011;25592;49.986;11.618;2023-04-15T01:04:52;7.10;;;4.30;;
39924;SDS011;25592;49.986;11.618;2023-04-15T01:07:38;8.13;;;4.75;;
39924;SDS011;25592;49.986;11.618;2023-04-15T01:10:23;5.75;;;4.10;;
39924;SDS011;25592;49.986;11.618;2023-04-15T01:13:09;5.32;;;4.03;;
39924;SDS011;25592;49.986;11.618;2023-04-15T01:15:55;8.70;;;4.65;;
39924;SDS011;25592;49.986;11.618;2023-04-15T01:18:41;6.45;;;3.63;;
39924;SDS011;25592;49.986;11.618;2023-04-15T01:21:27;7.75;;;4.57;;
39924;SDS011;25592;49.986;11.618;2023-04-15T01:24:12;5.65;;;3.83;;
39924;SDS011;25592;49.986;11.618;2023-04-15T01:27:01;6.28;;;3.78;;
39924;SDS011;25592;49.986;11.618;2023-04-15T01:29:49;6.43;;;4.07;;
39924;SDS011;25592;49.986;11.618;2023-04-15T01:32:34;6.35;;;4.25;;
39924;SDS011;25592;49.986;11.618;2023-04-15T01:35:20;6.53;;;4.10;;
39924;SDS011;25592;49.986;11.618;2023-04-15T01:38:08;7.15;;;4.15;;
39924;SDS011;25592;49.986;11.618;2023-04-15T01:40:54;6.85;;;4.30;;
39924;SDS011;25592;49.986;11.618;2023-04-15T01:43:40;6.00;;;3.85;;
39924;SDS011;25592;49.986;11.618;2023-04-15T01:46:26;7.50;;;4.25;;
39924;SDS011;25592;49.986;11.618;2023-04-15T01:49:11;7.32;;;4.60;;
39924;SDS011;25592;49.986;11.618;2023-04-15T01:51:57;7.30;;;4.88;;
39924;SDS011;25592;49.986;11.618;2023-04-15T01:54:42;5.93;;;4.40;;
39924;SDS011;25592;49.986;11.618;2023-04-15T01:57:28;7.13;;;4.45;;
39924;SDS011;25592;49.986;11.618;2023-04-15T02:00:13;7.70;;;5.03;;
39924;SDS011;25592;49.986;11.618;2023-04-15T02:02:58;7.50;;;4.75;;
39924;SDS011;25592;49.986;11.618;2023-04-15T02:05:44;8.85;;;4.97;;
39924;SDS011;25592;49.986;11.618;2023-04-15T02:08:29;7.18;;;4.60;;
39924;SDS011;25592;49.986;11.618;2023-04-15T02:11:14;7.13;;;3.72;;
39924;SDS011;25592;49.986;11.618;2023-04-15T02:14:00;7.03;;;4.32;;
39924;SDS011;25592;49.986;11.618;2023-04-15T02:16:45;8.20;;;4.90;;
39924;SDS011;25592;49.986;11.618;2023-04-15T02:19:31;7.53;;;4.30;;
39924;SDS011;25592;49.986;11.618;2023-04-15T02:22:17;6.93;;;4.22;;
39924;SDS011;25592;49.986;11.618;2023-04-15T02:25:03;8.30;;;5.60;;
39924;SDS011;25592;49.986;11.618;2023-04-15T02:27:48;7.50;;;4.93;;
39924;SDS011;25592;49.986;11.618;2023-04-15T02:30:33;6.72;;;4.15;;
39924;SDS011;25592;49.986;11.618;2023-04-15T02:33:19;7.55;;;4.35;;
39924;SDS011;25592;49.986;11.618;2023-04-15T02:36:05;7.05;;;4.93;;
39924;SDS011;25592;49.986;11.618;2023-04-15T02:38:52;6.75;;;4.18;;
39924;SDS011;25592;49.986;11.618;2023-04-15T02:41:37;6.72;;;4.57;;
39924;SDS011;25592;49.986;11.618;2023-04-15T02:44:22;8.48;;;5.20;;
39924;SDS011;25592;49.986;11.618;2023-04-15T02:47:09;7.15;;;4.82;;
39924;SDS011;25592;49.986;11.618;2023-04-15T02:49:55;7.72;;;4.60;;
39924;SDS011;25592;49.986;11.618;2023-04-15T02:52:42;6.80;;;5.07;;
39924;SDS011;25592;49.986;11.618;2023-04-15T02:55:28;7.18;;;4.28;;
39924;SDS011;25592;49.986;11.618;2023-04-15T02:58:13;9.15;;;5.70;;
39924;SDS011;25592;49.986;11.618;2023-04-15T03:00:59;10.68;;;5.82;;
39924;SDS011;25592;49.986;11.618;2023-04-15T03:03:44;7.70;;;4.90;;
39924;SDS011;25592;49.986;11.618;2023-04-15T03:06:30;11.18;;;6.03;;
39924;SDS011;25592;49.986;11.618;2023-04-15T03:09:16;7.93;;;5.32;;
39924;SDS011;25592;49.986;11.618;2023-04-15T03:12:01;9.38;;;5.72;;
39924;SDS011;25592;49.986;11.618;2023-04-15T03:14:47;8.50;;;5.70;;
39924;SDS011;25592;49.986;11.618;2023-04-15T03:17:32;10.52;;;5.22;;
39924;SDS011;25592;49.986;11.618;2023-04-15T03:20:17;6.90;;;4.82;;
39924;SDS011;25592;49.986;11.618;2023-04-15T03:23:03;9.93;;;5.10;;
39924;SDS011;25592;49.986;11.618;2023-04-15T03:25:49;11.40;;;6.63;;
39924;SDS011;25592;49.986;11.618;2023-04-15T03:28:34;9.98;;;6.38;;
39924;SDS011;25592;49.986;11.618;2023-04-15T03:31:20;8.18;;;5.15;;
39924;SDS011;25592;49.986;11.618;2023-04-15T03:34:05;8.98;;;6.07;;
39924;SDS011;25592;49.986;11.618;2023-04-15T03:36:51;9.73;;;6.28;;
39924;SDS011;25592;49.986;11.618;2023-04-15T03:39:36;8.40;;;5.85;;
39924;SDS011;25592;49.986;11.618;2023-04-15T03:42:22;9.75;;;5.68;;
39924;SDS011;25592;49.986;11.618;2023-04-15T03:45:07;10.75;;;5.63;;
39924;SDS011;25592;49.986;11.618;2023-04-15T03:47:52;7.97;;;5.35;;
39924;SDS011;25592;49.986;11.618;2023-04-15T03:50:38;10.98;;;6.35;;
39924;SDS011;25592;49.986;11.618;2023-04-15T03:53:23;9.75;;;5.90;;
39924;SDS011;25592;49.986;11.618;2023-04-15T03:56:08;13.10;;;7.07;;
39924;SDS011;25592;49.986;11.618;2023-04-15T03:58:54;10.70;;;6.28;;
39924;SDS011;25592;49.986;11.618;2023-04-15T04:01:39;14.90;;;7.10;;
39924;SDS011;25592;49.986;11.618;2023-04-15T04:04:25;9.60;;;6.03;;
39924;SDS011;25592;49.986;11.618;2023-04-15T04:07:16;9.40;;;6.00;;
39924;SDS011;25592;49.986;11.618;2023-04-15T04:10:02;10.52;;;6.50;;
39924;SDS011;25592;49.986;11.618;2023-04-15T04:12:48;13.23;;;6.43;;
39924;SDS011;25592;49.986;11.618;2023-04-15T04:15:33;9.15;;;6.13;;
39924;SDS011;25592;49.986;11.618;2023-04-15T04:18:18;12.15;;;6.53;;
39924;SDS011;25592;49.986;11.618;2023-04-15T04:21:04;8.90;;;5.63;;
39924;SDS011;25592;49.986;11.618;2023-04-15T04:23:49;8.82;;;5.72;;
39924;SDS011;25592;49.986;11.618;2023-04-15T04:26:35;9.95;;;5.72;;
39924;SDS011;25592;49.986;11.618;2023-04-15T04:29:20;9.25;;;6.05;;
39924;SDS011;25592;49.986;11.618;2023-04-15T04:32:05;7.82;;;4.90;;
39924;SDS011;25592;49.986;11.618;2023-04-15T04:34:51;9.65;;;5.63;;
39924;SDS011;25592;49.986;11.618;2023-04-15T04:37:37;8.35;;;5.75;;
39924;SDS011;25592;49.986;11.618;2023-04-15T04:40:22;8.90;;;5.47;;
39924;SDS011;25592;49.986;11.618;2023-04-15T04:43:07;9.00;;;5.80;;
39924;SDS011;25592;49.986;11.618;2023-04-15T04:45:54;8.75;;;5.40;;
39924;SDS011;25592;49.986;11.618;2023-04-15T04:48:39;9.80;;;5.85;;
39924;SDS011;25592;49.986;11.618;2023-04-15T04:51:24;9.52;;;5.93;;
39924;SDS011;25592;49.986;11.618;2023-04-15T04:54:10;7.88;;;5.13;;
39924;SDS011;25592;49.986;11.618;2023-04-15T04:56:55;8.90;;;5.78;;
39924;SDS011;25592;49.986;11.618;2023-04-15T04:59:41;8.80;;;5.57;;
39924;SDS011;25592;49.986;11.618;2023-04-15T05:02:26;8.23;;;4.88;;
39924;SDS011;25592;49.986;11.618;2023-04-15T05:05:12;8.07;;;5.38;;
39924;SDS011;25592;49.986;11.618;2023-04-15T05:07:57;8.00;;;5.30;;
39924;SDS011;25592;49.986;11.618;2023-04-15T05:10:42;9.98;;;5.90;;
39924;SDS011;25592;49.986;11.618;2023-04-15T05:13:28;6.05;;;4.45;;
39924;SDS011;25592;49.986;11.618;2023-04-15T05:16:13;8.93;;;4.90;;
39924;SDS011;25592;49.986;11.618;2023-04-15T05:18:59;10.63;;;5.57;;
39924;SDS011;25592;49.986;11.618;2023-04-15T05:21:44;7.38;;;4.80;;
39924;SDS011;25592;49.986;11.618;2023-04-15T05:24:30;7.90;;;5.22;;
39924;SDS011;25592;49.986;11.618;2023-04-15T05:27:15;10.27;;;5.45;;
39924;SDS011;25592;49.986;11.618;2023-04-15T05:30:00;7.75;;;4.82;;
39924;SDS011;25592;49.986;11.618;2023-04-15T05:32:46;7.55;;;4.72;;
39924;SDS011;25592;49.986;11.618;2023-04-15T05:35:31;9.40;;;5.05;;
39924;SDS011;25592;49.986;11.618;2023-04-15T05:38:16;8.40;;;5.38;;
39924;SDS011;25592;49.986;11.618;2023-04-15T05:41:02;7.57;;;5.38;;
39924;SDS011;25592;49.986;11.618;2023-04-15T05:43:47;10.95;;;5.70;;
39924;SDS011;25592;49.986;11.618;2023-04-15T05:46:32;9.73;;;5.38;;
39924;SDS011;25592;49.986;11.618;2023-04-15T05:49:18;8.43;;;5.15;;
39924;SDS011;25592;49.986;11.618;2023-04-15T05:52:03;7.28;;;5.20;;
39924;SDS011;25592;49.986;11.618;2023-04-15T05:54:48;9.07;;;5.18;;
39924;SDS011;25592;49.986;11.618;2023-04-15T05:57:34;7.32;;;4.97;;
39924;SDS011;25592;49.986;11.618;2023-04-15T06:00:19;12.05;;;7.13;;
39924;SDS011;25592;49.986;11.618;2023-04-15T06:03:04;14.38;;;9.07;;
39924;SDS011;25592;49.986;11.618;2023-04-15T06:05:51;13.80;;;8.63;;
39924;SDS011;25592;49.986;11.618;2023-04-15T06:08:37;12.88;;;8.80;;
39924;SDS011;25592;49.986;11.618;2023-04-15T06:11:22;11.27;;;6.57;;
39924;SDS011;25592;49.986;11.618;2023-04-15T06:14:08;8.63;;;5.30;;
39924;SDS011;25592;49.986;11.618;2023-04-15T06:16:53;8.00;;;5.60;;
39924;SDS011;25592;49.986;11.618;2023-04-15T06:19:39;9.18;;;6.18;;
39924;SDS011;25592;49.986;11.618;2023-04-15T06:22:24;10.43;;;6.93;;
39924;SDS011;25592;49.986;11.618;2023-04-15T06:25:10;13.93;;;8.20;;
39924;SDS011;25592;49.986;11.618;2023-04-15T06:27:55;8.15;;;5.88;;
39924;SDS011;25592;49.986;11.618;2023-04-15T06:30:40;8.70;;;5.78;;
39924;SDS011;25592;49.986;11.618;2023-04-15T06:33:26;9.43;;;4.95;;
39924;SDS011;25592;49.986;11.618;2023-04-15T06:36:12;6.88;;;4.35;;
39924;SDS011;25592;49.986;11.618;2023-04-15T06:38:57;9.23;;;4.85;;
39924;SDS011;25592;49.986;11.618;2023-04-15T06:41:43;9.18;;;5.95;;
39924;SDS011;25592;49.986;11.618;2023-04-15T06:44:29;7.10;;;4.40;;
39924;SDS011;25592;49.986;11.618;2023-04-15T06:47:18;8.27;;;5.32;;
39924;SDS011;25592;49.986;11.618;2023-04-15T06:50:04;9.55;;;5.28;;
39924;SDS011;25592;49.986;11.618;2023-04-15T06:52:51;7.15;;;5.00;;
39924;SDS011;25592;49.986;11.618;2023-04-15T06:55:38;7.00;;;4.68;;
39924;SDS011;25592;49.986;11.618;2023-04-15T06:58:24;7.38;;;4.85;;
39924;SDS011;25592;49.986;11.618;2023-04-15T07:01:09;9.88;;;5.65;;
39924;SDS011;25592;49.986;11.618;2023-04-15T07:03:56;10.05;;;5.68;;
39924;SDS011;25592;49.986;11.618;2023-04-15T07:06:41;8.38;;;5.47;;
39924;SDS011;25592;49.986;11.618;2023-04-15T07:09:28;8.68;;;4.68;;
39924;SDS011;25592;49.986;11.618;2023-04-15T07:12:14;7.85;;;5.75;;
39924;SDS011;25592;49.986;11.618;2023-04-15T07:15:00;7.47;;;4.95;;
39924;SDS011;25592;49.986;11.618;2023-04-15T07:17:45;8.32;;;4.85;;
39924;SDS011;25592;49.986;11.618;2023-04-15T07:20:31;7.82;;;4.90;;
39924;SDS011;25592;49.986;11.618;2023-04-15T07:23:17;8.57;;;5.22;;
39924;SDS011;25592;49.986;11.618;2023-04-15T07:26:03;8.13;;;5.07;;
39924;SDS011;25592;49.986;11.618;2023-04-15T07:28:49;9.18;;;5.70;;
39924;SDS011;25592;49.986;11.618;2023-04-15T07:31:34;9.07;;;5.90;;
39924;SDS011;25592;49.986;11.618;2023-04-15T07:34:21;8.32;;;4.80;;
39924;SDS011;25592;49.986;11.618;2023-04-15T07:37:08;7.30;;;4.90;;
39924;SDS011;25592;49.986;11.618;2023-04-15T07:39:55;8.20;;;5.55;;
39924;SDS011;25592;49.986;11.618;2023-04-15T07:42:41;9.18;;;5.70;;
39924;SDS011;25592;49.986;11.618;2023-04-15T07:45:29;9.23;;;5.70;;
39924;SDS011;25592;49.986;11.618;2023-04-15T07:48:17;8.77;;;5.93;;
39924;SDS011;25592;49.986;11.618;2023-04-15T07:51:02;9.88;;;5.70;;
39924;SDS011;25592;49.986;11.618;2023-04-15T07:53:48;8.85;;;5.80;;
39924;SDS011;25592;49.986;11.618;2023-04-15T07:56:34;10.05;;;6.45;;
39924;SDS011;25592;49.986;11.618;2023-04-15T07:59:20;8.18;;;5.45;;
39924;SDS011;25592;49.986;11.618;2023-04-15T08:02:06;8.68;;;5.32;;
39924;SDS011;25592;49.986;11.618;2023-04-15T08:04:52;9.60;;;6.13;;
39924;SDS011;25592;49.986;11.618;2023-04-15T08:07:38;9.88;;;6.72;;
39924;SDS011;25592;49.986;11.618;2023-04-15T08:10:24;9.50;;;5.65;;
39924;SDS011;25592;49.986;11.618;2023-04-15T08:13:09;9.73;;;5.85;;
39924;SDS011;25592;49.986;11.618;2023-04-15T08:19:05;7.88;;;4.88;;
39924;SDS011;25592;49.986;11.618;2023-04-15T08:21:50;9.35;;;5.50;;
39924;SDS011;25592;49.986;11.618;2023-04-15T08:24:36;7.90;;;5.47;;
39924;SDS011;25592;49.986;11.618;2023-04-15T08:27:23;9.13;;;6.10;;
39924;SDS011;25592;49.986;11.618;2023-04-15T08:30:08;9.13;;;5.88;;
39924;SDS011;25592;49.986;11.618;2023-04-15T08:32:54;10.88;;;6.43;;
39924;SDS011;25592;49.986;11.618;2023-04-15T08:35:39;11.90;;;6.85;;
39924;SDS011;25592;49.986;11.618;2023-04-15T08:38:24;9.25;;;6.22;;
39924;SDS011;25592;49.986;11.618;2023-04-15T08:41:20;9.27;;;6.30;;
39924;SDS011;25592;49.986;11.618;2023-04-15T08:44:08;9.57;;;6.40;;
39924;SDS011;25592;49.986;11.618;2023-04-15T08:46:53;9.10;;;5.70;;
39924;SDS011;25592;49.986;11.618;2023-04-15T08:49:40;10.43;;;6.45;;
39924;SDS011;25592;49.986;11.618;2023-04-15T08:52:26;18.27;;;9.70;;
39924;SDS011;25592;49.986;11.618;2023-04-15T08:55:12;15.27;;;9.23;;
39924;SDS011;25592;49.986;11.618;2023-04-15T08:57:59;14.20;;;8.57;;
39924;SDS011;25592;49.986;11.618;2023-04-15T09:00:46;9.57;;;6.15;;
39924;SDS011;25592;49.986;11.618;2023-04-15T09:03:32;10.27;;;6.07;;
39924;SDS011;25592;49.986;11.618;2023-04-15T09:06:19;10.05;;;5.65;;
39924;SDS011;25592;49.986;11.618;2023-04-15T09:09:05;12.73;;;6.85;;
39924;SDS011;25592;49.986;11.618;2023-04-15T09:11:51;13.95;;;7.13;;
39924;SDS011;25592;49.986;11.618;2023-04-15T09:14:38;11.10;;;6.80;;
39924;SDS011;25592;49.986;11.618;2023-04-15T09:17:24;9.48;;;5.78;;
39924;SDS011;25592;49.986;11.618;2023-04-15T09:20:12;10.48;;;7.03;;
39924;SDS011;25592;49.986;11.618;2023-04-15T09:22:58;12.25;;;6.93;;
39924;SDS011;25592;49.986;11.618;2023-04-15T09:25:44;11.25;;;6.90;;
39924;SDS011;25592;49.986;11.618;2023-04-15T09:28:30;11.20;;;6.93;;
39924;SDS011;25592;49.986;11.618;2023-04-15T09:31:15;11.20;;;6.32;;
39924;SDS011;25592;49.986;11.618;2023-04-15T09:34:02;13.18;;;6.75;;
39924;SDS011;25592;49.986;11.618;2023-04-15T09:36:52;9.52;;;6.55;;
39924;SDS011;25592;49.986;11.618;2023-04-15T09:39:45;10.10;;;6.20;;
39924;SDS011;25592;49.986;11.618;2023-04-15T09:42:31;10.00;;;5.95;;
39924;SDS011;25592;49.986;11.618;2023-04-15T09:45:17;9.00;;;6.00;;
39924;SDS011;25592;49.986;11.618;2023-04-15T09:51:05;8.23;;;5.63;;
39924;SDS011;25592;49.986;11.618;2023-04-15T09:53:53;10.55;;;7.00;;
39924;SDS011;25592;49.986;11.618;2023-04-15T09:56:40;8.75;;;5.68;;
39924;SDS011;25592;49.986;11.618;2023-04-15T09:59:26;9.63;;;6.03;;
39924;SDS011;25592;49.986;11.618;2023-04-15T10:02:11;8.90;;;6.10;;
39924;SDS011;25592;49.986;11.618;2023-04-15T10:04:58;9.80;;;6.10;;
39924;SDS011;25592;49.986;11.618;2023-04-15T10:07:45;10.68;;;5.72;;
39924;SDS011;25592;49.986;11.618;2023-04-15T10:10:30;9.07;;;5.60;;
39924;SDS011;25592;49.986;11.618;2023-04-15T10:13:21;9.23;;;6.10;;
39924;SDS011;25592;49.986;11.618;2023-04-15T10:16:11;8.63;;;5.80;;
39924;SDS011;25592;49.986;11.618;2023-04-15T10:19:00;8.90;;;5.55;;
39924;SDS011;25592;49.986;11.618;2023-04-15T10:21:48;7.25;;;5.18;;
39924;SDS011;25592;49.986;11.618;2023-04-15T10:24:35;9.20;;;6.22;;
39924;SDS011;25592;49.986;11.618;2023-04-15T10:27:23;11.65;;;6.90;;
39924;SDS011;25592;49.986;11.618;2023-04-15T10:30:08;11.77;;;5.70;;
39924;SDS011;25592;49.986;11.618;2023-04-15T10:32:55;10.75;;;6.53;;
39924;SDS011;25592;49.986;11.618;2023-04-15T10:35:41;9.98;;;5.72;;
39924;SDS011;25592;49.986;11.618;2023-04-15T10:41:27;12.18;;;7.68;;
39924;SDS011;25592;49.986;11.618;2023-04-15T10:44:18;9.20;;;5.57;;
39924;SDS011;25592;49.986;11.618;2023-04-15T10:47:05;8.32;;;5.15;;
39924;SDS011;25592;49.986;11.618;2023-04-15T10:49:59;7.07;;;3.92;;
39924;SDS011;25592;49.986;11.618;2023-04-15T10:52:49;7.75;;;3.80;;
39924;SDS011;25592;49.986;11.618;2023-04-15T10:55:35;7.35;;;3.92;;
39924;SDS011;25592;49.986;11.618;2023-04-15T10:58:24;6.43;;;4.00;;
39924;SDS011;25592;49.986;11.618;2023-04-15T11:01:10;6.00;;;3.38;;
39924;SDS011;25592;49.986;11.618;2023-04-15T11:03:57;6.05;;;4.00;;
39924;SDS011;25592;49.986;11.618;2023-04-15T11:06:43;12.93;;;4.20;;
39924;SDS011;25592;49.986;11.618;2023-04-15T11:09:30;7.43;;;4.72;;
39924;SDS011;25592;49.986;11.618;2023-04-15T11:12:19;8.77;;;3.92;;
39924;SDS011;25592;49.986;11.618;2023-04-15T11:18:15;6.80;;;4.18;;
39924;SDS011;25592;49.986;11.618;2023-04-15T11:21:07;5.68;;;3.78;;
39924;SDS011;25592;49.986;11.618;2023-04-15T11:23:55;5.22;;;3.83;;
39924;SDS011;25592;49.986;11.618;2023-04-15T11:26:41;8.73;;;4.38;;
39924;SDS011;25592;49.986;11.618;2023-04-15T11:29:28;6.47;;;4.20;;
39924;SDS011;25592;49.986;11.618;2023-04-15T11:32:15;6.03;;;4.38;;
39924;SDS011;25592;49.986;11.618;2023-04-15T11:35:00;5.60;;;3.70;;
39924;SDS011;25592;49.986;11.618;2023-04-15T11:37:47;6.45;;;3.67;;
39924;SDS011;25592;49.986;11.618;2023-04-15T11:40:33;5.80;;;3.72;;
39924;SDS011;25592;49.986;11.618;2023-04-15T11:43:20;5.90;;;3.60;;
39924;SDS011;25592;49.986;11.618;2023-04-15T11:46:07;6.45;;;4.18;;
39924;SDS011;25592;49.986;11.618;2023-04-15T11:48:53;8.05;;;4.57;;
39924;SDS011;25592;49.986;11.618;2023-04-15T11:51:38;7.93;;;4.40;;
39924;SDS011;25592;49.986;11.618;2023-04-15T11:54:24;8.60;;;4.88;;
39924;SDS011;25592;49.986;11.618;2023-04-15T11:57:09;7.18;;;4.55;;
39924;SDS011;25592;49.986;11.618;2023-04-15T11:59:55;6.55;;;4.28;;
39924;SDS011;25592;49.986;11.618;2023-04-15T12:02:40;7.80;;;4.22;;
39924;SDS011;25592;49.986;11.618;2023-04-15T12:05:25;7.00;;;4.68;;
39924;SDS011;25592;49.986;11.618;2023-04-15T12:08:11;5.75;;;3.40;;
39924;SDS011;25592;49.986;11.618;2023-04-15T12:10:58;5.85;;;3.88;;
39924;SDS011;25592;49.986;11.618;2023-04-15T12:13:47;5.65;;;3.90;;
39924;SDS011;25592;49.986;11.618;2023-04-15T12:16:34;7.00;;;3.53;;
39924;SDS011;25592;49.986;11.618;2023-04-15T12:19:39;5.53;;;3.38;;
39924;SDS011;25592;49.986;11.618;2023-04-15T12:22:26;6.35;;;3.80;;
39924;SDS011;25592;49.986;11.618;2023-04-15T12:25:12;7.75;;;3.70;;
39924;SDS011;25592;49.986;11.618;2023-04-15T12:27:59;6.07;;;4.15;;
39924;SDS011;25592;49.986;11.618;2023-04-15T12:30:48;6.15;;;3.60;;
39924;SDS011;25592;49.986;11.618;2023-04-15T12:33:36;4.40;;;2.95;;
39924;SDS011;25592;49.986;11.618;2023-04-15T12:36:21;5.90;;;3.30;;
39924;SDS011;25592;49.986;11.618;2023-04-15T12:39:07;6.00;;;3.72;;
39924;SDS011;25592;49.986;11.618;2023-04-15T12:41:53;5.70;;;3.05;;
39924;SDS011;25592;49.986;11.618;2023-04-15T12:44:38;5.93;;;3.80;;
39924;SDS011;25592;49.986;11.618;2023-04-15T12:47:24;4.50;;;3.20;;
39924;SDS011;25592;49.986;11.618;2023-04-15T12:50:10;6.25;;;3.25;;
39924;SDS011;25592;49.986;11.618;2023-04-15T12:52:55;5.60;;;3.25;;
39924;SDS011;25592;49.986;11.618;2023-04-15T12:55:40;5.55;;;3.70;;
39924;SDS011;25592;49.986;11.618;2023-04-15T12:58:26;4.47;;;3.00;;
39924;SDS011;25592;49.986;11.618;2023-04-15T13:01:11;5.68;;;3.50;;
39924;SDS011;25592;49.986;11.618;2023-04-15T13:03:57;4.80;;;3.17;;
39924;SDS011;25592;49.986;11.618;2023-04-15T13:06:42;5.45;;;3.75;;
39924;SDS011;25592;49.986;11.618;2023-04-15T13:09:27;8.40;;;3.92;;
39924;SDS011;25592;49.986;11.618;2023-04-15T13:12:13;8.25;;;4.63;;
39924;SDS011;25592;49.986;11.618;2023-04-15T13:14:59;10.13;;;4.70;;
39924;SDS011;25592;49.986;11.618;2023-04-15T13:17:45;14.48;;;5.50;;
39924;SDS011;25592;49.986;11.618;2023-04-15T13:20:30;14.15;;;6.55;;
39924;SDS011;25592;49.986;11.618;2023-04-15T13:23:16;8.85;;;4.55;;
39924;SDS011;25592;49.986;11.618;2023-04-15T13:26:01;7.55;;;4.18;;
39924;SDS011;25592;49.986;11.618;2023-04-15T13:28:47;7.13;;;4.03;;
39924;SDS011;25592;49.986;11.618;2023-04-15T13:31:32;4.70;;;2.65;;
39924;SDS011;25592;49.986;11.618;2023-04-15T13:34:18;5.28;;;2.90;;
39924;SDS011;25592;49.986;11.618;2023-04-15T13:37:06;6.07;;;3.05;;
39924;SDS011;25592;49.986;11.618;2023-04-15T13:39:52;5.10;;;3.45;;
39924;SDS011;25592;49.986;11.618;2023-04-15T13:42:38;5.10;;;2.95;;
39924;SDS011;25592;49.986;11.618;2023-04-15T13:45:24;5.53;;;3.30;;
39924;SDS011;25592;49.986;11.618;2023-04-15T13:48:10;4.72;;;3.10;;
39924;SDS011;25592;49.986;11.618;2023-04-15T13:50:56;6.28;;;3.70;;
39924;SDS011;25592;49.986;11.618;2023-04-15T13:53:41;5.25;;;3.30;;
39924;SDS011;25592;49.986;11.618;2023-04-15T13:56:26;4.68;;;3.03;;
39924;SDS011;25592;49.986;11.618;2023-04-15T13:59:15;5.07;;;3.08;;
39924;SDS011;25592;49.986;11.618;2023-04-15T14:02:01;4.20;;;2.55;;
39924;SDS011;25592;49.986;11.618;2023-04-15T14:04:46;5.18;;;3.10;;
39924;SDS011;25592;49.986;11.618;2023-04-15T14:07:32;6.70;;;2.55;;
39924;SDS011;25592;49.986;11.618;2023-04-15T14:10:18;4.35;;;2.70;;
39924;SDS011;25592;49.986;11.618;2023-04-15T14:13:04;4.25;;;3.05;;
39924;SDS011;25592;49.986;11.618;2023-04-15T14:15:49;4.40;;;2.70;;
39924;SDS011;25592;49.986;11.618;2023-04-15T14:18:35;5.35;;;2.90;;
39924;SDS011;25592;49.986;11.618;2023-04-15T14:21:21;6.25;;;3.80;;
39924;SDS011;25592;49.986;11.618;2023-04-15T14:24:08;5.35;;;3.63;;
39924;SDS011;25592;49.986;11.618;2023-04-15T14:26:54;6.45;;;3.72;;
39924;SDS011;25592;49.986;11.618;2023-04-15T14:29:41;6.63;;;3.58;;
39924;SDS011;25592;49.986;11.618;2023-04-15T14:32:26;5.38;;;3.60;;
39924;SDS011;25592;49.986;11.618;2023-04-15T14:35:12;6.20;;;3.42;;
39924;SDS011;25592;49.986;11.618;2023-04-15T14:37:57;6.00;;;3.70;;
39924;SDS011;25592;49.986;11.618;2023-04-15T14:40:42;5.72;;;3.30;;
39924;SDS011;25592;49.986;11.618;2023-04-15T14:43:28;5.75;;;3.58;;
39924;SDS011;25592;49.986;11.618;2023-04-15T14:46:14;6.15;;;3.50;;
39924;SDS011;25592;49.986;11.618;2023-04-15T14:48:59;5.88;;;3.78;;
39924;SDS011;25592;49.986;11.618;2023-04-15T14:51:45;5.25;;;3.28;;
39924;SDS011;25592;49.986;11.618;2023-04-15T14:54:30;6.35;;;3.05;;
39924;SDS011;25592;49.986;11.618;2023-04-15T14:57:16;7.13;;;3.50;;
39924;SDS011;25592;49.986;11.618;2023-04-15T15:00:02;8.68;;;2.70;;
39924;SDS011;25592;49.986;11.618;2023-04-15T15:02:48;10.40;;;4.93;;
39924;SDS011;25592;49.986;11.618;2023-04-15T15:05:34;8.82;;;4.38;;
39924;SDS011;25592;49.986;11.618;2023-04-15T15:08:19;6.88;;;3.03;;
39924;SDS011;25592;49.986;11.618;2023-04-15T15:11:04;7.20;;;3.83;;
39924;SDS011;25592;49.986;11.618;2023-04-15T15:13:50;7.75;;;4.25;;
39924;SDS011;25592;49.986;11.618;2023-04-15T15:16:36;6.25;;;3.75;;
39924;SDS011;25592;49.986;11.618;2023-04-15T15:19:21;8.73;;;4.70;;
39924;SDS011;25592;49.986;11.618;2023-04-15T15:22:07;5.28;;;3.40;;
39924;SDS011;25592;49.986;11.618;2023-04-15T15:24:52;5.72;;;3.65;;
39924;SDS011;25592;49.986;11.618;2023-04-15T15:27:38;5.47;;;3.38;;
39924;SDS011;25592;49.986;11.618;2023-04-15T15:30:23;6.32;;;3.92;;
39924;SDS011;25592;49.986;11.618;2023-04-15T15:33:09;11.50;;;4.10;;
39924;SDS011;25592;49.986;11.618;2023-04-15T15:35:55;6.93;;;4.38;;
39924;SDS011;25592;49.986;11.618;2023-04-15T15:38:42;6.63;;;4.25;;
39924;SDS011;25592;49.986;11.618;2023-04-15T15:41:29;8.13;;;3.85;;
39924;SDS011;25592;49.986;11.618;2023-04-15T15:44:17;6.38;;;4.18;;
39924;SDS011;25592;49.986;11.618;2023-04-15T15:47:06;7.55;;;4.07;;
39924;SDS011;25592;49.986;11.618;2023-04-15T15:49:52;8.32;;;4.43;;
39924;SDS011;25592;49.986;11.618;2023-04-15T15:52:41;5.30;;;3.60;;
39924;SDS011;25592;49.986;11.618;2023-04-15T15:55:27;5.35;;;3.65;;
39924;SDS011;25592;49.986;11.618;2023-04-15T15:58:12;5.13;;;3.42;;
39924;SDS011;25592;49.986;11.618;2023-04-15T16:00:58;8.70;;;4.68;;
39924;SDS011;25592;49.986;11.618;2023-04-15T16:03:45;8.80;;;3.60;;
39924;SDS011;25592;49.986;11.618;2023-04-15T16:06:31;8.10;;;4.05;;
39924;SDS011;25592;49.986;11.618;2023-04-15T16:09:19;6.55;;;4.32;;
39924;SDS011;25592;49.986;11.618;2023-04-15T16:12:04;5.97;;;3.72;;
39924;SDS011;25592;49.986;11.618;2023-04-15T16:14:50;6.47;;;4.18;;
39924;SDS011;25592;49.986;11.618;2023-04-15T16:17:35;6.00;;;3.95;;
39924;SDS011;25592;49.986;11.618;2023-04-15T16:20:21;9.02;;;5.28;;
39924;SDS011;25592;49.986;11.618;2023-04-15T16:23:10;10.93;;;5.75;;
39924;SDS011;25592;49.986;11.618;2023-04-15T16:25:57;17.23;;;8.52;;
39924;SDS011;25592;49.986;11.618;2023-04-15T16:28:43;16.00;;;9.85;;
39924;SDS011;25592;49.986;11.618;2023-04-15T16:31:28;11.10;;;7.47;;
39924;SDS011;25592;49.986;11.618;2023-04-15T16:34:14;13.00;;;8.55;;
39924;SDS011;25592;49.986;11.618;2023-04-15T16:36:59;12.00;;;7.85;;